sensor_id;sensor_type;location;lat;lon;timestamp;pressure;altitude;pressure_sealevel;temperature;humidity
20228;BME280;12195;55.790;37.572;2024-01-06T00:00:50;99392.53;;;-14.31;62.07
20228;BME280;12195;55.790;37.572;2024-01-06T00:03:22;99393.46;;;-14.29;62.10
20228;BME280;12195;55.790;37.572;2024-01-06T00:05:55;99390.19;;;-14.27;61.97
20228;BME280;12195;55.790;37.572;2024-01-06T00:08:27;99389.26;;;-14.29;61.90
20228;BME280;12195;55.790;37.572;2024-01-06T00:11:00;99384.97;;;-14.31;61.99
20228;BME280;12195;55.790;37.572;2024-01-06T00:13:34;99385.84;;;-14.31;62.08
20228;BME280;12195;55.790;37.572;2024-01-06T00:16:07;99378.16;;;-14.34;62.05
20228;BME280;12195;55.790;37.572;2024-01-06T00:18:40;99376.45;;;-14.35;61.91
20228;BME280;12195;55.790;37.572;2024-01-06T00:21:12;99378.07;;;-14.37;61.64
20228;BME280;12195;55.790;37.572;2024-01-06T00:23:44;99376.39;;;-14.36;61.77
20228;BME280;12195;55.790;37.572;2024-01-06T00:26:17;99375.25;;;-14.44;61.46
20228;BME280;12195;55.790;37.572;2024-01-06T00:28:50;99372.58;;;-14.49;61.53
20228;BME280;12195;55.790;37.572;2024-01-06T00:31:23;99366.55;;;-14.52;61.44
20228;BME280;12195;55.790;37.572;2024-01-06T00:33:56;99371.43;;;-14.57;61.58
20228;BME280;12195;55.790;37.572;2024-01-06T00:36:29;99371.43;;;-14.57;61.51
20228;BME280;12195;55.790;37.572;2024-01-06T00:39:01;99362.26;;;-14.55;61.50
20228;BME280;12195;55.790;37.572;2024-01-06T00:41:35;99365.34;;;-14.62;61.51
20228;BME280;12195;55.790;37.572;2024-01-06T00:44:07;99366.14;;;-14.63;61.67
20228;BME280;12195;55.790;37.572;2024-01-06T00:46:40;99365.52;;;-14.57;61.75
20228;BME280;12195;55.790;37.572;2024-01-06T00:49:12;99362.20;;;-14.56;61.51
20228;BME280;12195;55.790;37.572;2024-01-06T00:51:45;99369.69;;;-14.58;61.50
20228;BME280;12195;55.790;37.572;2024-01-06T00:54:18;99381.51;;;-14.57;61.49
20228;BME280;12195;55.790;37.572;2024-01-06T00:56:51;99380.57;;;-14.59;61.63
20228;BME280;12195;55.790;37.572;2024-01-06T00:59:25;99374.70;;;-14.59;61.71
20228;BME280;12195;55.790;37.572;2024-01-06T01:01:59;99379.33;;;-14.48;61.84
20228;BME280;12195;55.790;37.572;2024-01-06T01:04:31;99375.03;;;-14.50;61.64
20228;BME280;12195;55.790;37.572;2024-01-06T01:07:03;99374.23;;;-14.49;61.81
20228;BME280;12195;55.790;37.572;2024-01-06T01:09:36;99380.14;;;-14.49;61.65
20228;BME280;12195;55.790;37.572;2024-01-06T01:12:09;99375.94;;;-14.48;61.65
20228;BME280;12195;55.790;37.572;2024-01-06T01:14:42;99379.95;;;-14.53;61.71
20228;BME280;12195;55.790;37.572;2024-01-06T01:17:14;99379.08;;;-14.54;61.79
20228;BME280;12195;55.790;37.572;2024-01-06T01:19:46;99386.13;;;-14.45;61.97
20228;BME280;12195;55.790;37.572;2024-01-06T01:22:19;99381.84;;;-14.48;61.83
20228;BME280;12195;55.790;37.572;2024-01-06T01:24:52;99391.23;;;-14.44;61.85
20228;BME280;12195;55.790;37.572;2024-01-06T01:27:25;99391.57;;;-14.35;61.88
20228;BME280;12195;55.790;37.572;2024-01-06T01:29:57;99383.32;;;-14.31;62.00
20228;BME280;12195;55.790;37.572;2024-01-06T01:32:31;99388.23;;;-14.34;61.89
20228;BME280;12195;55.790;37.572;2024-01-06T01:35:04;99375.70;;;-14.32;61.95
20228;BME280;12195;55.790;37.572;2024-01-06T01:37:36;99379.30;;;-14.26;62.10
20228;BME280;12195;55.790;37.572;2024-01-06T01:40:09;99380.11;;;-14.27;62.10
20228;BME280;12195;55.790;37.572;2024-01-06T01:42:43;99376.91;;;-14.23;62.19
20228;BME280;12195;55.790;37.572;2024-01-06T01:45:16;99376.98;;;-14.20;62.17
20228;BME280;12195;55.790;37.572;2024-01-06T01:47:50;99374.55;;;-14.17;62.23
20228;BME280;12195;55.790;37.572;2024-01-06T01:50:22;99371.34;;;-14.13;62.34
20228;BME280;12195;55.790;37.572;2024-01-06T01:52:55;99369.06;;;-14.07;62.51
20228;BME280;12195;55.790;37.572;2024-01-06T01:55:28;99360.55;;;-14.10;62.34
20228;BME280;12195;55.790;37.572;2024-01-06T01:58:01;99357.15;;;-14.11;62.35
20228;BME280;12195;55.790;37.572;2024-01-06T02:00:33;99363.00;;;-14.12;62.38
20228;BME280;12195;55.790;37.572;2024-01-06T02:03:08;99359.67;;;-14.11;62.45
20228;BME280;12195;55.790;37.572;2024-01-06T02:05:41;99350.40;;;-14.12;62.49
20228;BME280;12195;55.790;37.572;2024-01-06T02:08:14;99349.41;;;-14.15;62.49
20228;BME280;12195;55.790;37.572;2024-01-06T02:10:47;99356.28;;;-14.11;62.61
20228;BME280;12195;55.790;37.572;2024-01-06T02:13:20;99348.58;;;-14.16;62.51
20228;BME280;12195;55.790;37.572;2024-01-06T02:15:53;99355.32;;;-14.15;62.55
20228;BME280;12195;55.790;37.572;2024-01-06T02:18:27;99363.00;;;-14.12;62.64
20228;BME280;12195;55.790;37.572;2024-01-06T02:21:02;99357.09;;;-14.12;62.69
20228;BME280;12195;55.790;37.572;2024-01-06T02:23:36;99368.10;;;-14.10;62.69
20228;BME280;12195;55.790;37.572;2024-01-06T02:26:09;99363.95;;;-14.08;62.86
20228;BME280;12195;55.790;37.572;2024-01-06T02:28:44;99367.23;;;-14.11;62.86
20228;BME280;12195;55.790;37.572;2024-01-06T02:31:18;99379.08;;;-14.08;62.92
20228;BME280;12195;55.790;37.572;2024-01-06T02:33:51;99371.46;;;-14.10;63.08
20228;BME280;12195;55.790;37.572;2024-01-06T02:36:23;99372.16;;;-14.14;63.01
20228;BME280;12195;55.790;37.572;2024-01-06T02:38:56;99377.89;;;-14.18;62.97
20228;BME280;12195;55.790;37.572;2024-01-06T02:41:29;99379.56;;;-14.18;62.99
20228;BME280;12195;55.790;37.572;2024-01-06T02:44:02;99381.28;;;-14.17;63.02
20228;BME280;12195;55.790;37.572;2024-01-06T02:46:34;99372.84;;;-14.18;63.01
20228;BME280;12195;55.790;37.572;2024-01-06T02:49:08;99365.28;;;-14.18;62.97
20228;BME280;12195;55.790;37.572;2024-01-06T02:51:41;99383.05;;;-14.15;63.05
20228;BME280;12195;55.790;37.572;2024-01-06T02:54:14;99374.73;;;-14.12;63.12
20228;BME280;12195;55.790;37.572;2024-01-06T02:56:46;99374.91;;;-14.08;63.16
20228;BME280;12195;55.790;37.572;2024-01-06T02:59:19;99364.02;;;-14.07;63.15
20228;BME280;12195;55.790;37.572;2024-01-06T03:01:51;99370.88;;;-14.03;63.20
20228;BME280;12195;55.790;37.572;2024-01-06T03:04:24;99369.26;;;-14.01;63.18
20228;BME280;12195;55.790;37.572;2024-01-06T03:06:57;99367.79;;;-13.96;63.26
20228;BME280;12195;55.790;37.572;2024-01-06T03:09:29;99366.28;;;-13.91;63.29
20228;BME280;12195;55.790;37.572;2024-01-06T03:12:02;99362.19;;;-13.87;63.30
20228;BME280;12195;55.790;37.572;2024-01-06T03:14:35;99351.29;;;-13.86;63.27
20228;BME280;12195;55.790;37.572;2024-01-06T03:17:08;99356.39;;;-13.85;63.26
20228;BME280;12195;55.790;37.572;2024-01-06T03:19:42;99359.92;;;-13.80;63.37
20228;BME280;12195;55.790;37.572;2024-01-06T03:22:15;99354.88;;;-13.80;63.35
20228;BME280;12195;55.790;37.572;2024-01-06T03:24:47;99350.93;;;-13.73;63.58
20228;BME280;12195;55.790;37.572;2024-01-06T03:27:20;99353.45;;;-13.73;63.37
20228;BME280;12195;55.790;37.572;2024-01-06T03:29:52;99356.81;;;-13.73;63.34
20228;BME280;12195;55.790;37.572;2024-01-06T03:32:25;99355.11;;;-13.74;63.35
20228;BME280;12195;55.790;37.572;2024-01-06T03:35:00;99355.98;;;-13.73;63.40
20228;BME280;12195;55.790;37.572;2024-01-06T03:37:33;99356.76;;;-13.74;63.41
20228;BME280;12195;55.790;37.572;2024-01-06T03:40:06;99355.11;;;-13.74;63.47
20228;BME280;12195;55.790;37.572;2024-01-06T03:42:39;99361.05;;;-13.72;63.55
20228;BME280;12195;55.790;37.572;2024-01-06T03:45:12;99361.86;;;-13.73;63.56
20228;BME280;12195;55.790;37.572;2024-01-06T03:47:45;99363.63;;;-13.70;63.64
20228;BME280;12195;55.790;37.572;2024-01-06T03:50:18;99368.61;;;-13.72;63.67
20228;BME280;12195;55.790;37.572;2024-01-06T03:52:50;99370.23;;;-13.74;63.62
20228;BME280;12195;55.790;37.572;2024-01-06T03:55:23;99376.93;;;-13.74;63.61
20228;BME280;12195;55.790;37.572;2024-01-06T03:57:56;99366.90;;;-13.73;63.62
20228;BME280;12195;55.790;37.572;2024-01-06T04:00:29;99370.35;;;-13.71;63.70
20228;BME280;12195;55.790;37.572;2024-01-06T04:03:01;99374.72;;;-13.65;63.83
20228;BME280;12195;55.790;37.572;2024-01-06T04:05:34;99375.48;;;-13.68;63.67
20228;BME280;12195;55.790;37.572;2024-01-06T04:08:08;99367.97;;;-13.66;63.64
20228;BME280;12195;55.790;37.572;2024-01-06T04:10:41;99368.08;;;-13.63;63.68
20228;BME280;12195;55.790;37.572;2024-01-06T04:13:18;99371.47;;;-13.63;63.76
20228;BME280;12195;55.790;37.572;2024-01-06T04:15:51;99367.27;;;-13.62;63.75
20228;BME280;12195;55.790;37.572;2024-01-06T04:18:24;99364.69;;;-13.64;63.76
20228;BME280;12195;55.790;37.572;2024-01-06T04:20:57;99369.67;;;-13.65;63.82
20228;BME280;12195;55.790;37.572;2024-01-06T04:23:29;99376.45;;;-13.64;63.88
20228;BME280;12195;55.790;37.572;2024-01-06T04:26:02;99380.69;;;-13.63;63.97
20228;BME280;12195;55.790;37.572;2024-01-06T04:28:36;99383.27;;;-13.62;63.98
20228;BME280;12195;55.790;37.572;2024-01-06T04:31:10;99373.94;;;-13.64;63.95
20228;BME280;12195;55.790;37.572;2024-01-06T04:33:43;99379.88;;;-13.62;64.01
20228;BME280;12195;55.790;37.572;2024-01-06T04:36:16;99373.18;;;-13.62;63.99
20228;BME280;12195;55.790;37.572;2024-01-06T04:38:49;99380.89;;;-13.57;64.07
20228;BME280;12195;55.790;37.572;2024-01-06T04:41:22;99375.00;;;-13.58;64.00
20228;BME280;12195;55.790;37.572;2024-01-06T04:43:54;99372.61;;;-13.53;64.07
20228;BME280;12195;55.790;37.572;2024-01-06T04:46:28;99367.63;;;-13.52;64.04
20228;BME280;12195;55.790;37.572;2024-01-06T04:49:02;99371.97;;;-13.48;64.06
20228;BME280;12195;55.790;37.572;2024-01-06T04:51:35;99386.34;;;-13.45;64.10
20228;BME280;12195;55.790;37.572;2024-01-06T04:54:09;99381.41;;;-13.42;64.19
20228;BME280;12195;55.790;37.572;2024-01-06T04:56:42;99387.33;;;-13.42;64.17
20228;BME280;12195;55.790;37.572;2024-01-06T04:59:15;99379.76;;;-13.42;64.18
20228;BME280;12195;55.790;37.572;2024-01-06T05:01:48;99385.70;;;-13.40;64.31
20228;BME280;12195;55.790;37.572;2024-01-06T05:04:20;99387.38;;;-13.40;64.22
20228;BME280;12195;55.790;37.572;2024-01-06T05:06:52;99393.57;;;-13.31;64.57
20228;BME280;12195;55.790;37.572;2024-01-06T05:09:27;99392.45;;;-13.39;64.22
20228;BME280;12195;55.790;37.572;2024-01-06T05:11:59;99391.56;;;-13.41;64.19
20228;BME280;12195;55.790;37.572;2024-01-06T05:14:31;99402.02;;;-13.30;64.49
20228;BME280;12195;55.790;37.572;2024-01-06T05:17:04;99402.66;;;-13.36;64.25
20228;BME280;12195;55.790;37.572;2024-01-06T05:19:37;99398.37;;;-13.38;64.26
20228;BME280;12195;55.790;37.572;2024-01-06T05:22:10;99403.23;;;-13.44;64.26
20228;BME280;12195;55.790;37.572;2024-01-06T05:24:43;99407.16;;;-13.52;64.21
20228;BME280;12195;55.790;37.572;2024-01-06T05:27:16;99408.55;;;-13.60;64.17
20228;BME280;12195;55.790;37.572;2024-01-06T05:29:49;99410.78;;;-13.68;64.27
20228;BME280;12195;55.790;37.572;2024-01-06T05:32:23;99402.20;;;-13.73;64.57
20228;BME280;12195;55.790;37.572;2024-01-06T05:34:56;99409.58;;;-13.79;64.68
20228;BME280;12195;55.790;37.572;2024-01-06T05:37:31;99411.02;;;-13.85;64.58
20228;BME280;12195;55.790;37.572;2024-01-06T05:40:04;99407.37;;;-13.93;64.31
20228;BME280;12195;55.790;37.572;2024-01-06T05:42:38;99400.50;;;-13.97;64.46
20228;BME280;12195;55.790;37.572;2024-01-06T05:45:13;99401.89;;;-14.05;64.24
20228;BME280;12195;55.790;37.572;2024-01-06T05:47:47;99398.29;;;-14.12;64.14
20228;BME280;12195;55.790;37.572;2024-01-06T05:50:21;99396.45;;;-14.16;64.14
20228;BME280;12195;55.790;37.572;2024-01-06T05:52:53;99398.80;;;-14.20;64.18
20228;BME280;12195;55.790;37.572;2024-01-06T05:55:27;99397.00;;;-14.24;64.13
20228;BME280;12195;55.790;37.572;2024-01-06T05:58:01;99395.11;;;-14.30;64.08
20228;BME280;12195;55.790;37.572;2024-01-06T06:00:34;99393.28;;;-14.34;63.85
20228;BME280;12195;55.790;37.572;2024-01-06T06:03:08;99405.87;;;-14.34;64.05
20228;BME280;12195;55.790;37.572;2024-01-06T06:05:41;99397.54;;;-14.33;64.39
20228;BME280;12195;55.790;37.572;2024-01-06T06:08:15;99410.28;;;-14.28;64.73
20228;BME280;12195;55.790;37.572;2024-01-06T06:10:51;99409.66;;;-14.23;64.75
20228;BME280;12195;55.790;37.572;2024-01-06T06:13:26;99412.48;;;-14.14;64.71
20228;BME280;12195;55.790;37.572;2024-01-06T06:16:00;99420.48;;;-14.02;64.84
20228;BME280;12195;55.790;37.572;2024-01-06T06:18:32;99422.58;;;-13.90;64.95
20228;BME280;12195;55.790;37.572;2024-01-06T06:21:05;99424.91;;;-13.73;65.21
20228;BME280;12195;55.790;37.572;2024-01-06T06:23:39;99420.88;;;-13.68;65.01
20228;BME280;12195;55.790;37.572;2024-01-06T06:26:13;99422.81;;;-13.61;65.03
20228;BME280;12195;55.790;37.572;2024-01-06T06:28:46;99425.40;;;-13.59;64.97
20228;BME280;12195;55.790;37.572;2024-01-06T06:31:19;99429.86;;;-13.52;65.02
20228;BME280;12195;55.790;37.572;2024-01-06T06:33:52;99429.41;;;-13.41;65.14
20228;BME280;12195;55.790;37.572;2024-01-06T06:36:25;99426.83;;;-13.42;65.08
20228;BME280;12195;55.790;37.572;2024-01-06T06:38:58;99428.77;;;-13.35;65.16
20228;BME280;12195;55.790;37.572;2024-01-06T06:41:32;99432.30;;;-13.30;65.25
20228;BME280;12195;55.790;37.572;2024-01-06T06:44:05;99434.88;;;-13.29;65.19
20228;BME280;12195;55.790;37.572;2024-01-06T06:46:39;99439.33;;;-13.22;65.26
20228;BME280;12195;55.790;37.572;2024-01-06T06:49:13;99447.91;;;-13.17;65.27
20228;BME280;12195;55.790;37.572;2024-01-06T06:51:47;99445.58;;;-13.11;65.27
20228;BME280;12195;55.790;37.572;2024-01-06T06:54:20;99446.61;;;-13.06;65.28
20228;BME280;12195;55.790;37.572;2024-01-06T06:56:53;99445.03;;;-13.02;65.27
20228;BME280;12195;55.790;37.572;2024-01-06T06:59:26;99452.66;;;-13.01;65.28
20228;BME280;12195;55.790;37.572;2024-01-06T07:01:59;99440.14;;;-12.96;65.26
20228;BME280;12195;55.790;37.572;2024-01-06T07:04:32;99441.02;;;-12.96;65.25
20228;BME280;12195;55.790;37.572;2024-01-06T07:07:05;99445.46;;;-12.89;65.26
20228;BME280;12195;55.790;37.572;2024-01-06T07:09:38;99447.28;;;-12.85;65.23
20228;BME280;12195;55.790;37.572;2024-01-06T07:12:10;99451.63;;;-12.81;65.24
20228;BME280;12195;55.790;37.572;2024-01-06T07:14:43;99440.80;;;-12.77;65.26
20228;BME280;12195;55.790;37.572;2024-01-06T07:17:15;99447.85;;;-12.67;65.28
20228;BME280;12195;55.790;37.572;2024-01-06T07:19:48;99440.38;;;-12.64;65.01
20228;BME280;12195;55.790;37.572;2024-01-06T07:22:22;99444.61;;;-12.63;65.08
20228;BME280;12195;55.790;37.572;2024-01-06T07:24:55;99435.45;;;-12.59;65.13
20228;BME280;12195;55.790;37.572;2024-01-06T07:27:28;99437.37;;;-12.52;65.12
20228;BME280;12195;55.790;37.572;2024-01-06T07:30:02;99451.09;;;-12.44;65.16
20228;BME280;12195;55.790;37.572;2024-01-06T07:32:34;99448.73;;;-12.39;65.19
20228;BME280;12195;55.790;37.572;2024-01-06T07:35:07;99448.28;;;-12.26;65.17
20228;BME280;12195;55.790;37.572;2024-01-06T07:37:40;99443.99;;;-12.29;64.90
20228;BME280;12195;55.790;37.572;2024-01-06T07:40:12;99449.94;;;-12.27;64.92
20228;BME280;12195;55.790;37.572;2024-01-06T07:42:46;99441.73;;;-12.20;65.02
20228;BME280;12195;55.790;37.572;2024-01-06T07:45:18;99456.03;;;-12.20;64.88
20228;BME280;12195;55.790;37.572;2024-01-06T07:47:52;99455.27;;;-12.18;64.84
20228;BME280;12195;55.790;37.572;2024-01-06T07:50:25;99457.94;;;-12.13;64.78
20228;BME280;12195;55.790;37.572;2024-01-06T07:52:58;99452.89;;;-12.13;64.83
20228;BME280;12195;55.790;37.572;2024-01-06T07:55:31;99446.23;;;-12.10;64.94
20228;BME280;12195;55.790;37.572;2024-01-06T07:58:04;99454.86;;;-12.03;65.01
20228;BME280;12195;55.790;37.572;2024-01-06T08:00:37;99454.86;;;-12.03;65.01
20228;BME280;12195;55.790;37.572;2024-01-06T08:03:11;99456.77;;;-11.96;65.08
20228;BME280;12195;55.790;37.572;2024-01-06T08:05:44;99445.16;;;-11.90;65.22
20228;BME280;12195;55.790;37.572;2024-01-06T08:08:17;99437.03;;;-11.80;65.21
20228;BME280;12195;55.790;37.572;2024-01-06T08:10:50;99433.04;;;-11.72;65.12
20228;BME280;12195;55.790;37.572;2024-01-06T08:13:24;99443.31;;;-11.66;65.08
20228;BME280;12195;55.790;37.572;2024-01-06T08:15:58;99439.23;;;-11.61;65.11
20228;BME280;12195;55.790;37.572;2024-01-06T08:18:31;99431.70;;;-11.58;65.14
20228;BME280;12195;55.790;37.572;2024-01-06T08:21:04;99430.19;;;-11.51;65.18
20228;BME280;12195;55.790;37.572;2024-01-06T08:23:37;99426.97;;;-11.46;65.20
20228;BME280;12195;55.790;37.572;2024-01-06T08:26:10;99422.92;;;-11.39;65.25
20228;BME280;12195;55.790;37.572;2024-01-06T08:28:44;99429.94;;;-11.29;65.16
20228;BME280;12195;55.790;37.572;2024-01-06T08:31:17;99414.13;;;-11.21;65.04
20228;BME280;12195;55.790;37.572;2024-01-06T08:33:50;99416.89;;;-11.12;64.91
20228;BME280;12195;55.790;37.572;2024-01-06T08:36:23;99410.91;;;-11.15;64.76
20228;BME280;12195;55.790;37.572;2024-01-06T08:38:57;99409.89;;;-11.22;64.97
20228;BME280;12195;55.790;37.572;2024-01-06T08:41:30;99413.25;;;-11.23;65.11
20228;BME280;12195;55.790;37.572;2024-01-06T08:44:03;99406.41;;;-11.25;65.23
20228;BME280;12195;55.790;37.572;2024-01-06T08:46:35;99412.38;;;-11.23;65.34
20228;BME280;12195;55.790;37.572;2024-01-06T08:49:08;99414.09;;;-11.22;65.42
20228;BME280;12195;55.790;37.572;2024-01-06T08:51:41;99424.45;;;-11.13;65.43
20228;BME280;12195;55.790;37.572;2024-01-06T08:54:14;99429.33;;;-11.21;65.26
20228;BME280;12195;55.790;37.572;2024-01-06T08:56:47;99427.58;;;-11.23;65.36
20228;BME280;12195;55.790;37.572;2024-01-06T08:59:21;99427.41;;;-11.29;65.48
20228;BME280;12195;55.790;37.572;2024-01-06T09:01:56;99423.25;;;-11.27;65.66
20228;BME280;12195;55.790;37.572;2024-01-06T09:04:32;99420.07;;;-11.20;65.73
20228;BME280;12195;55.790;37.572;2024-01-06T09:07:07;99427.77;;;-11.16;65.72
20228;BME280;12195;55.790;37.572;2024-01-06T09:09:41;99420.17;;;-11.16;65.76
20228;BME280;12195;55.790;37.572;2024-01-06T09:12:15;99415.19;;;-11.13;65.74
20228;BME280;12195;55.790;37.572;2024-01-06T09:14:48;99405.02;;;-11.14;65.81
20228;BME280;12195;55.790;37.572;2024-01-06T09:17:22;99400.03;;;-11.11;66.13
20228;BME280;12195;55.790;37.572;2024-01-06T09:19:55;99405.36;;;-11.01;66.14
20228;BME280;12195;55.790;37.572;2024-01-06T09:22:29;99402.05;;;-10.98;66.30
20228;BME280;12195;55.790;37.572;2024-01-06T09:25:02;99395.45;;;-10.92;66.33
20228;BME280;12195;55.790;37.572;2024-01-06T09:27:35;99398.20;;;-10.83;66.32
20228;BME280;12195;55.790;37.572;2024-01-06T09:30:09;99397.58;;;-10.74;66.45
20228;BME280;12195;55.790;37.572;2024-01-06T09:32:43;99400.98;;;-10.72;66.40
20228;BME280;12195;55.790;37.572;2024-01-06T09:35:17;99396.87;;;-10.69;66.63
20228;BME280;12195;55.790;37.572;2024-01-06T09:37:49;99394.50;;;-10.61;66.51
20228;BME280;12195;55.790;37.572;2024-01-06T09:40:23;99390.47;;;-10.53;66.56
20228;BME280;12195;55.790;37.572;2024-01-06T09:42:57;99388.84;;;-10.50;66.67
20228;BME280;12195;55.790;37.572;2024-01-06T09:45:31;99383.05;;;-10.44;66.70
20228;BME280;12195;55.790;37.572;2024-01-06T09:48:11;99387.34;;;-10.42;66.70
20228;BME280;12195;55.790;37.572;2024-01-06T09:50:46;99379.02;;;-10.36;66.84
20228;BME280;12195;55.790;37.572;2024-01-06T09:53:21;99377.42;;;-10.31;66.93
20228;BME280;12195;55.790;37.572;2024-01-06T09:55:57;99391.89;;;-10.27;66.96
20228;BME280;12195;55.790;37.572;2024-01-06T09:58:32;99389.42;;;-10.24;67.01
20228;BME280;12195;55.790;37.572;2024-01-06T10:01:07;99387.88;;;-10.18;66.84
20228;BME280;12195;55.790;37.572;2024-01-06T10:03:42;99385.45;;;-10.13;66.92
20228;BME280;12195;55.790;37.572;2024-01-06T10:06:18;99388.94;;;-10.08;67.00
20228;BME280;12195;55.790;37.572;2024-01-06T10:08:53;99379.69;;;-10.05;66.77
20228;BME280;12195;55.790;37.572;2024-01-06T10:11:26;99376.32;;;-10.04;66.92
20228;BME280;12195;55.790;37.572;2024-01-06T10:13:59;99378.02;;;-10.03;66.86
20228;BME280;12195;55.790;37.572;2024-01-06T10:16:34;99374.66;;;-10.02;67.02
20228;BME280;12195;55.790;37.572;2024-01-06T10:19:08;99377.33;;;-9.96;67.26
20228;BME280;12195;55.790;37.572;2024-01-06T10:21:41;99377.44;;;-9.90;67.35
20228;BME280;12195;55.790;37.572;2024-01-06T10:24:17;99384.47;;;-9.77;67.19
20228;BME280;12195;55.790;37.572;2024-01-06T10:26:50;99366.67;;;-9.78;66.98
20228;BME280;12195;55.790;37.572;2024-01-06T10:29:24;99375.12;;;-9.79;67.06
20228;BME280;12195;55.790;37.572;2024-01-06T10:31:59;99370.98;;;-9.74;66.98
20228;BME280;12195;55.790;37.572;2024-01-06T10:34:33;99368.41;;;-9.77;66.86
20228;BME280;12195;55.790;37.572;2024-01-06T10:37:09;99358.18;;;-9.80;66.80
20228;BME280;12195;55.790;37.572;2024-01-06T10:39:43;99358.05;;;-9.88;66.89
20228;BME280;12195;55.790;37.572;2024-01-06T10:42:16;99357.11;;;-9.91;66.94
20228;BME280;12195;55.790;37.572;2024-01-06T10:44:50;99349.52;;;-9.90;66.99
20228;BME280;12195;55.790;37.572;2024-01-06T10:47:25;99351.27;;;-9.87;67.10
20228;BME280;12195;55.790;37.572;2024-01-06T10:50:01;99354.73;;;-9.84;67.07
20228;BME280;12195;55.790;37.572;2024-01-06T10:52:38;99356.38;;;-9.86;66.99
20228;BME280;12195;55.790;37.572;2024-01-06T10:55:13;99358.05;;;-9.88;66.92
20228;BME280;12195;55.790;37.572;2024-01-06T10:57:50;99352.03;;;-9.91;66.91
20228;BME280;12195;55.790;37.572;2024-01-06T11:00:25;99347.72;;;-9.95;66.85
20228;BME280;12195;55.790;37.572;2024-01-06T11:02:59;99350.19;;;-9.98;66.76
20228;BME280;12195;55.790;37.572;2024-01-06T11:05:33;99342.78;;;-9.89;66.61
20228;BME280;12195;55.790;37.572;2024-01-06T11:08:08;99338.81;;;-9.75;66.37
20228;BME280;12195;55.790;37.572;2024-01-06T11:10:43;99336.50;;;-9.63;66.41
20228;BME280;12195;55.790;37.572;2024-01-06T11:13:22;99340.71;;;-9.65;66.19
20228;BME280;12195;55.790;37.572;2024-01-06T11:15:56;99347.43;;;-9.67;66.16
20228;BME280;12195;55.790;37.572;2024-01-06T11:18:37;99342.25;;;-9.73;66.21
20228;BME280;12195;55.790;37.572;2024-01-06T11:21:19;99342.05;;;-9.82;66.17
20228;BME280;12195;55.790;37.572;2024-01-06T11:24:14;99339.23;;;-9.97;65.98
20228;BME280;12195;55.790;37.572;2024-01-06T11:26:55;99342.39;;;-10.10;65.97
20228;BME280;12195;55.790;37.572;2024-01-06T11:29:30;99334.53;;;-10.21;66.09
20228;BME280;12195;55.790;37.572;2024-01-06T11:32:26;99341.98;;;-10.28;66.07
20228;BME280;12195;55.790;37.572;2024-01-06T11:40:36;99346.98;;;-10.31;66.23
20228;BME280;12195;55.790;37.572;2024-01-06T11:43:04;99343.61;;;-10.32;66.32
20228;BME280;12195;55.790;37.572;2024-01-06T11:45:40;99351.08;;;-10.38;66.31
20228;BME280;12195;55.790;37.572;2024-01-06T11:48:13;99352.73;;;-10.40;66.33
20228;BME280;12195;55.790;37.572;2024-01-06T11:50:48;99356.11;;;-10.39;66.37
20228;BME280;12195;55.790;37.572;2024-01-06T11:53:22;99362.88;;;-10.40;66.38
20228;BME280;12195;55.790;37.572;2024-01-06T11:55:55;99362.02;;;-10.40;66.40
20228;BME280;12195;55.790;37.572;2024-01-06T11:58:28;99358.64;;;-10.41;66.41
20228;BME280;12195;55.790;37.572;2024-01-06T12:01:01;99364.55;;;-10.40;66.48
20228;BME280;12195;55.790;37.572;2024-01-06T12:03:34;99363.72;;;-10.39;66.43
20228;BME280;12195;55.790;37.572;2024-01-06T12:06:06;99367.28;;;-10.31;66.83
20228;BME280;12195;55.790;37.572;2024-01-06T12:08:40;99367.05;;;-10.42;66.49
20228;BME280;12195;55.790;37.572;2024-01-06T12:11:17;99368.71;;;-10.44;66.48
20228;BME280;12195;55.790;37.572;2024-01-06T12:13:50;99366.97;;;-10.46;66.48
20228;BME280;12195;55.790;37.572;2024-01-06T12:16:23;99370.34;;;-10.46;66.46
20228;BME280;12195;55.790;37.572;2024-01-06T12:19:00;99370.30;;;-10.49;66.39
20228;BME280;12195;55.790;37.572;2024-01-06T12:21:34;99371.09;;;-10.51;66.45
20228;BME280;12195;55.790;37.572;2024-01-06T12:24:17;99372.72;;;-10.53;66.33
20228;BME280;12195;55.790;37.572;2024-01-06T12:26:56;99374.34;;;-10.57;66.26
20228;BME280;12195;55.790;37.572;2024-01-06T12:29:30;99370.06;;;-10.58;66.28
20228;BME280;12195;55.790;37.572;2024-01-06T12:32:05;99370.94;;;-10.57;66.36
20228;BME280;12195;55.790;37.572;2024-01-06T12:34:38;99372.00;;;-10.48;66.31
20228;BME280;12195;55.790;37.572;2024-01-06T12:37:14;99379.77;;;-10.40;66.20
20228;BME280;12195;55.790;37.572;2024-01-06T12:39:48;99378.94;;;-10.39;66.19
20228;BME280;12195;55.790;37.572;2024-01-06T12:42:21;99373.03;;;-10.40;66.20
20228;BME280;12195;55.790;37.572;2024-01-06T12:44:55;99378.93;;;-10.41;66.22
20228;BME280;12195;55.790;37.572;2024-01-06T12:47:30;99381.47;;;-10.39;66.27
20228;BME280;12195;55.790;37.572;2024-01-06T12:50:05;99385.78;;;-10.37;66.33
20228;BME280;12195;55.790;37.572;2024-01-06T12:52:38;99379.05;;;-10.35;66.88
20228;BME280;12195;55.790;37.572;2024-01-06T12:55:13;99389.03;;;-10.42;66.61
20228;BME280;12195;55.790;37.572;2024-01-06T12:57:47;99391.49;;;-10.45;66.66
20228;BME280;12195;55.790;37.572;2024-01-06T13:00:19;99388.92;;;-10.47;66.71
20228;BME280;12195;55.790;37.572;2024-01-06T13:02:53;99390.78;;;-10.40;67.55
20228;BME280;12195;55.790;37.572;2024-01-06T13:05:26;99393.87;;;-10.53;66.81
20228;BME280;12195;55.790;37.572;2024-01-06T13:07:59;99392.92;;;-10.56;66.90
20228;BME280;12195;55.790;37.572;2024-01-06T13:10:35;99391.84;;;-10.66;66.71
20228;BME280;12195;55.790;37.572;2024-01-06T13:13:08;99399.28;;;-10.73;66.55
20228;BME280;12195;55.790;37.572;2024-01-06T13:15:44;99389.02;;;-10.79;66.59
20228;BME280;12195;55.790;37.572;2024-01-06T13:18:18;99393.13;;;-10.83;66.60